Angora, Minnesota
Current Conditions -  °F | °C
As of 8:34 AM on Tuesday 21 Oct 2014 (Local Time) from KCQM Reporting Station
Overcast Overcast  
Wind Chill:   Ceiling: 1800
Heat Index:   Visibility: 10mi
Dew Point:   Wind: 8mph
Humidity: 81%   Direction: 130°SE
Pressure: 30.21"   Gusts: NA
Location:  47.77°N, 92.63°W
Report Text: KCQM 211334Z AUTO 13007KT 10SM OVC018 04/01 A3021 RMK AO2
Loading
Personal Weather Stations






























Interactive Weather Map New forecast layout! Learn more

10-Day Weather Forecast

Advertisements
Track Severe Weather on mobile